Rapid City, South Dakota
Current Conditions -  °F | °C
As of 6:58 AM on Monday 20 Oct 2014 (Local Time) from KRCA Reporting Station
Clear Clear  
Wind Chill: 44°   Ceiling: Unl
Heat Index: 47°   Visibility: 10mi
Dew Point: 38°   Wind: 7mph
Humidity: 69%   Direction: 190°S
Pressure: 30.03"   Gusts: NA
Location:  44.08°N, 103.23°W
Report Text: KRCA 201258Z AUTO 19006KT 10SM CLR 09/03 A3003 RMK AO2 VIS 2 1/2 RWY13 SLP168 T00860031 $
Loading
Personal Weather Stations






























Interactive Weather Map New forecast layout! Learn more

10-Day Weather Forecast

Advertisements
Track Severe Weather on mobile